Time Latitude Longitude Accuracy (66% radius in meters) Altitude (meters) Speed (km/hour) Bearing (degrees) Battery (%) GPS flag
06:48:06 57.206007 60.114207 0 0 0 0 1 delete
06:48:05 57.206038 60.114173 0 0 0 0 1 delete
06:48:04 57.206063 60.114147 0 0 0 0 1 delete
06:48:03 57.206095 60.114122 0 0 0 0 1 delete
06:48:02 57.206127 60.114118 0 0 0 0 1 delete
06:48:01 57.206153 60.114140 0 0 0 0 1 delete
06:48:00 57.206183 60.114177 0 0 0 0 1 delete
06:47:59 57.206223 60.114212 0 0 0 0 1 delete
06:47:58 57.206258 60.114232 0 0 0 0 1 delete
06:47:57 57.206293 60.114257 0 0 0 0 1 delete
06:47:56 57.206335 60.114280 0 0 0 0 1 delete
06:47:55 57.206382 60.114298 0 0 0 0 1 delete
06:47:54 57.206423 60.114318 0 0 0 0 1 delete
06:47:53 57.206457 60.114333 0 0 0 0 1 delete
06:47:52 57.206482 60.114332 0 0 0 0 1 delete
06:47:51 57.206510 60.114323 0 0 0 0 1 delete
06:47:50 57.206548 60.114308 0 0 0 0 1 delete
06:47:49 57.206588 60.114302 0 0 0 0 1 delete
06:47:48 57.206622 60.114307 0 0 0 0 1 delete
06:47:47 57.206658 60.114330 0 0 0 0 1 delete
06:47:46 57.206697 60.114368 0 0 0 0 1 delete
06:47:45 57.206732 60.114408 0 0 0 0 1 delete
06:47:44 57.206758 60.114460 0 0 0 0 1 delete
06:47:43 57.206773 60.114513 0 0 0 0 1 delete
06:47:42 57.206785 60.114570 0 0 0 0 1 delete
06:47:41 57.206783 60.114632 0 0 0 0 1 delete
06:47:40 57.206775 60.114695 0 0 0 0 1 delete
06:47:39 57.206767 60.114762 0 0 0 0 1 delete
06:47:38 57.206760 60.114822 0 0 0 0 1 delete
06:47:37 57.206760 60.114877 0 0 0 0 1 delete
06:47:36 57.206760 60.114913 0 0 0 0 1 delete
06:47:35 57.206758 60.114938 0 0 0 0 1 delete
06:47:34 57.206760 60.114950 0 0 0 0 1 delete
06:47:33 57.206762 60.114953 0 0 0 0 1 delete
06:47:32 57.206763 60.114957 0 0 0 0 1 delete
06:47:31 57.206767 60.114960 0 0 0 0 1 delete
06:47:30 57.206770 60.114965 0 0 0 0 1 delete
06:47:29 57.206772 60.114968 0 0 0 0 1 delete
06:47:28 57.206777 60.114973 0 0 0 0 1 delete
06:47:27 57.206785 60.114980 0 0 0 0 1 delete
06:47:26 57.206812 60.114995 0 0 0 0 1 delete
06:47:25 57.206848 60.115027 0 0 0 0 1 delete
06:47:24 57.206890 60.115057 0 0 0 0 1 delete
06:47:23 57.206938 60.115082 0 0 0 0 1 delete
06:47:22 57.206983 60.115095 0 0 0 0 1 delete
06:47:21 57.207028 60.115085 0 0 0 0 1 delete
06:47:20 57.207072 60.115063 0 0 0 0 1 delete
06:47:19 57.207117 60.115048 0 0 0 0 1 delete
06:47:18 57.207158 60.115040 0 0 0 0 1 delete
06:47:17 57.207192 60.115043 0 0 0 0 1 delete